createdAt,value
2018-09-10T00:02:25.534Z,1.80
2018-09-10T00:04:54.664Z,1.90
2018-09-10T00:07:23.813Z,1.90
2018-09-10T00:09:52.900Z,1.90
2018-09-10T00:12:22.069Z,1.90
2018-09-10T00:14:51.135Z,2.00
2018-09-10T00:17:20.228Z,1.73
2018-09-10T00:19:49.352Z,1.77
2018-09-10T00:22:19.212Z,1.90
2018-09-10T00:24:48.339Z,2.03
2018-09-10T00:27:17.460Z,1.80
2018-09-10T00:29:46.900Z,2.00
2018-09-10T00:32:16.274Z,1.87
2018-09-10T00:34:45.629Z,1.85
2018-09-10T00:37:14.771Z,1.80
2018-09-10T00:39:43.887Z,2.00
2018-09-10T00:42:13.184Z,1.77
2018-09-10T00:44:42.336Z,1.70
2018-09-10T00:47:11.411Z,1.90
2018-09-10T00:49:40.504Z,1.70
2018-09-10T00:52:09.626Z,2.07
2018-09-10T00:54:38.844Z,2.00
2018-09-10T00:57:07.964Z,2.00
2018-09-10T00:59:37.081Z,2.07
2018-09-10T01:02:06.188Z,2.03
2018-09-10T01:04:35.576Z,2.17
2018-09-10T01:07:04.755Z,2.00
2018-09-10T01:09:33.812Z,1.90
2018-09-10T01:12:02.972Z,2.10
2018-09-10T01:14:32.072Z,2.00
2018-09-10T01:17:02.259Z,2.02
2018-09-10T01:19:31.368Z,1.90
2018-09-10T01:22:00.476Z,2.00
2018-09-10T01:24:29.498Z,1.90
2018-09-10T01:26:58.764Z,2.23
2018-09-10T01:29:27.976Z,2.00
2018-09-10T01:31:57.072Z,2.23
2018-09-10T01:34:31.723Z,2.30
2018-09-10T01:37:00.767Z,2.17
2018-09-10T01:39:29.915Z,1.73
2018-09-10T01:41:59.008Z,2.20
2018-09-10T01:44:28.156Z,2.20
2018-09-10T01:46:57.276Z,2.20
2018-09-10T01:49:26.369Z,2.30
2018-09-10T01:51:55.556Z,2.00
2018-09-10T01:54:24.687Z,2.50
2018-09-10T01:56:53.751Z,2.20
2018-09-10T01:59:22.832Z,2.20
2018-09-10T02:01:51.937Z,2.07
2018-09-10T02:04:21.128Z,2.10
2018-09-10T02:06:50.265Z,1.93
2018-09-10T02:09:19.482Z,1.90
2018-09-10T02:11:48.624Z,2.10
2018-09-10T02:14:17.736Z,2.10
2018-09-10T02:16:46.936Z,1.70
2018-09-10T02:19:16.024Z,2.00
2018-09-10T02:21:45.164Z,2.00
2018-09-10T02:24:14.400Z,2.20
2018-09-10T02:26:43.596Z,2.17
2018-09-10T02:29:12.642Z,2.30
2018-09-10T02:31:42.684Z,2.13
2018-09-10T02:34:11.916Z,1.97
2018-09-10T02:36:41.016Z,2.40
2018-09-10T02:39:10.136Z,2.50
2018-09-10T02:41:44.124Z,2.20
2018-09-10T02:44:14.248Z,2.17
2018-09-10T02:46:43.336Z,1.90
2018-09-10T02:49:12.636Z,2.00
2018-09-10T02:51:41.744Z,2.07
2018-09-10T02:54:10.840Z,2.10
2018-09-10T02:56:39.984Z,2.10
2018-09-10T02:59:09.109Z,1.90
2018-09-10T03:01:38.249Z,2.33
2018-09-10T22:11:12.664Z,2.30
2018-09-10T22:13:41.780Z,2.50
2018-09-10T22:16:10.871Z,2.20
2018-09-10T22:18:40.120Z,2.40
2018-09-10T22:21:09.784Z,2.52
2018-09-10T22:23:38.872Z,2.62
2018-09-10T22:26:08.004Z,2.60
2018-09-10T22:28:37.064Z,2.72
2018-09-10T22:31:07.048Z,2.42
2018-09-10T22:33:36.153Z,2.22
2018-09-10T22:36:05.249Z,2.83
2018-09-10T22:38:34.359Z,2.35
2018-09-10T22:41:04.412Z,2.40
2018-09-10T22:43:33.608Z,2.40
2018-09-10T22:46:02.781Z,2.50
2018-09-10T22:48:31.885Z,2.80
2018-09-10T22:51:01.011Z,2.42
2018-09-10T22:53:30.999Z,3.00
2018-09-10T22:56:01.040Z,2.92
2018-09-10T22:58:30.841Z,2.90
2018-09-10T23:00:59.916Z,2.85
2018-09-10T23:03:29.504Z,2.70
2018-09-10T23:05:58.628Z,2.30
2018-09-10T23:08:27.743Z,2.45
2018-09-10T23:10:56.799Z,2.70
2018-09-10T23:13:25.913Z,2.62
2018-09-10T23:15:55.088Z,2.77
2018-09-10T23:18:24.432Z,3.00
2018-09-10T23:20:53.596Z,2.50
2018-09-10T23:23:22.680Z,2.50
2018-09-10T23:25:52.615Z,2.87
2018-09-10T23:28:21.708Z,3.12
2018-09-10T23:30:50.776Z,2.90
2018-09-10T23:33:19.900Z,2.70
2018-09-10T23:35:49.640Z,3.00
2018-09-10T23:38:18.729Z,2.98
2018-09-10T23:40:48.576Z,2.87
2018-09-10T23:43:17.625Z,3.00
2018-09-10T23:45:46.808Z,2.95
2018-09-10T23:48:15.885Z,3.10
2018-09-10T23:50:46.051Z,2.95
2018-09-10T23:53:15.132Z,3.05
2018-09-10T23:55:45.012Z,3.40
2018-09-10T23:58:14.128Z,2.65
